sensor_id;sensor_type;location;lat;lon;timestamp;P1;durP1;ratioP1;P2;durP2;ratioP2
11531;SDS011;5822;51.000;5.874;2023-05-25T00:02:02;17.20;;;16.30;;
11531;SDS011;5822;51.000;5.874;2023-05-25T00:04:28;17.40;;;16.40;;
11531;SDS011;5822;51.000;5.874;2023-05-25T00:06:58;17.92;;;16.92;;
11531;SDS011;5822;51.000;5.874;2023-05-25T00:09:27;17.80;;;16.80;;
11531;SDS011;5822;51.000;5.874;2023-05-25T00:11:53;17.88;;;16.88;;
11531;SDS011;5822;51.000;5.874;2023-05-25T00:14:19;17.33;;;16.43;;
11531;SDS011;5822;51.000;5.874;2023-05-25T00:16:45;17.08;;;16.17;;
11531;SDS011;5822;51.000;5.874;2023-05-25T00:19:12;17.00;;;16.08;;
11531;SDS011;5822;51.000;5.874;2023-05-25T00:21:39;16.42;;;15.52;;
11531;SDS011;5822;51.000;5.874;2023-05-25T00:24:05;16.15;;;15.25;;
11531;SDS011;5822;51.000;5.874;2023-05-25T00:26:31;16.10;;;15.20;;
11531;SDS011;5822;51.000;5.874;2023-05-25T00:28:59;15.88;;;15.07;;
11531;SDS011;5822;51.000;5.874;2023-05-25T00:31:25;16.13;;;15.32;;
11531;SDS011;5822;51.000;5.874;2023-05-25T00:33:51;16.52;;;15.63;;
11531;SDS011;5822;51.000;5.874;2023-05-25T00:36:17;16.90;;;16.00;;
11531;SDS011;5822;51.000;5.874;2023-05-25T00:38:46;17.00;;;16.10;;
11531;SDS011;5822;51.000;5.874;2023-05-25T00:41:12;17.30;;;16.30;;
11531;SDS011;5822;51.000;5.874;2023-05-25T00:43:39;17.30;;;16.30;;
11531;SDS011;5822;51.000;5.874;2023-05-25T00:46:04;16.63;;;15.73;;
11531;SDS011;5822;51.000;5.874;2023-05-25T00:48:31;17.05;;;16.05;;
11531;SDS011;5822;51.000;5.874;2023-05-25T00:50:57;17.50;;;16.50;;
11531;SDS011;5822;51.000;5.874;2023-05-25T00:53:25;16.90;;;16.00;;
11531;SDS011;5822;51.000;5.874;2023-05-25T00:56:12;16.63;;;15.73;;
11531;SDS011;5822;51.000;5.874;2023-05-25T00:58:39;17.80;;;16.80;;
11531;SDS011;5822;51.000;5.874;2023-05-25T01:01:08;17.67;;;16.65;;
11531;SDS011;5822;51.000;5.874;2023-05-25T01:03:38;17.47;;;16.47;;
11531;SDS011;5822;51.000;5.874;2023-05-25T01:06:10;17.20;;;16.20;;
11531;SDS011;5822;51.000;5.874;2023-05-25T01:08:39;16.70;;;15.80;;
11531;SDS011;5822;51.000;5.874;2023-05-25T01:11:10;17.05;;;16.15;;
11531;SDS011;5822;51.000;5.874;2023-05-25T01:13:38;17.55;;;16.55;;
11531;SDS011;5822;51.000;5.874;2023-05-25T01:16:06;17.65;;;16.65;;
11531;SDS011;5822;51.000;5.874;2023-05-25T01:18:33;17.30;;;16.38;;
11531;SDS011;5822;51.000;5.874;2023-05-25T01:21:04;17.20;;;16.20;;
11531;SDS011;5822;51.000;5.874;2023-05-25T01:24:02;16.70;;;15.80;;
11531;SDS011;5822;51.000;5.874;2023-05-25T01:26:38;17.27;;;16.30;;
11531;SDS011;5822;51.000;5.874;2023-05-25T01:29:08;16.80;;;15.90;;
11531;SDS011;5822;51.000;5.874;2023-05-25T01:31:35;17.20;;;16.20;;
11531;SDS011;5822;51.000;5.874;2023-05-25T01:34:03;16.80;;;15.90;;
11531;SDS011;5822;51.000;5.874;2023-05-25T01:36:29;17.00;;;16.10;;
11531;SDS011;5822;51.000;5.874;2023-05-25T01:38:56;17.30;;;16.30;;
11531;SDS011;5822;51.000;5.874;2023-05-25T01:41:22;17.13;;;16.13;;
11531;SDS011;5822;51.000;5.874;2023-05-25T01:43:47;17.13;;;16.23;;
11531;SDS011;5822;51.000;5.874;2023-05-25T01:54:06;16.80;;;15.90;;
11531;SDS011;5822;51.000;5.874;2023-05-25T01:56:40;16.27;;;15.38;;
11531;SDS011;5822;51.000;5.874;2023-05-25T01:59:10;16.83;;;15.93;;
11531;SDS011;5822;51.000;5.874;2023-05-25T02:01:37;17.10;;;16.20;;
11531;SDS011;5822;51.000;5.874;2023-05-25T02:04:05;16.90;;;16.00;;
11531;SDS011;5822;51.000;5.874;2023-05-25T02:06:31;17.48;;;16.50;;
11531;SDS011;5822;51.000;5.874;2023-05-25T02:08:56;17.40;;;16.42;;
11531;SDS011;5822;51.000;5.874;2023-05-25T02:11:22;17.50;;;16.60;;
11531;SDS011;5822;51.000;5.874;2023-05-25T02:13:48;17.20;;;16.30;;
11531;SDS011;5822;51.000;5.874;2023-05-25T02:16:13;17.13;;;16.13;;
11531;SDS011;5822;51.000;5.874;2023-05-25T02:18:39;17.50;;;16.60;;
11531;SDS011;5822;51.000;5.874;2023-05-25T02:21:04;17.57;;;16.60;;
11531;SDS011;5822;51.000;5.874;2023-05-25T02:23:30;17.90;;;16.90;;
11531;SDS011;5822;51.000;5.874;2023-05-25T02:25:56;17.85;;;16.85;;
11531;SDS011;5822;51.000;5.874;2023-05-25T02:28:21;17.73;;;16.73;;
11531;SDS011;5822;51.000;5.874;2023-05-25T02:30:47;17.20;;;16.30;;
11531;SDS011;5822;51.000;5.874;2023-05-25T02:33:12;17.87;;;16.80;;
11531;SDS011;5822;51.000;5.874;2023-05-25T02:35:38;17.65;;;16.65;;
11531;SDS011;5822;51.000;5.874;2023-05-25T02:38:05;17.80;;;16.80;;
11531;SDS011;5822;51.000;5.874;2023-05-25T02:40:31;17.57;;;16.57;;
11531;SDS011;5822;51.000;5.874;2023-05-25T02:42:57;17.53;;;16.60;;
11531;SDS011;5822;51.000;5.874;2023-05-25T02:45:22;17.80;;;16.80;;
11531;SDS011;5822;51.000;5.874;2023-05-25T02:47:48;17.63;;;16.67;;
11531;SDS011;5822;51.000;5.874;2023-05-25T02:50:13;16.90;;;16.00;;
11531;SDS011;5822;51.000;5.874;2023-05-25T02:52:39;17.33;;;16.43;;
11531;SDS011;5822;51.000;5.874;2023-05-25T02:55:05;17.60;;;16.60;;
11531;SDS011;5822;51.000;5.874;2023-05-25T02:57:34;17.90;;;16.90;;
11531;SDS011;5822;51.000;5.874;2023-05-25T03:00:01;18.00;;;17.00;;
11531;SDS011;5822;51.000;5.874;2023-05-25T03:02:27;17.90;;;16.90;;
11531;SDS011;5822;51.000;5.874;2023-05-25T03:04:54;17.53;;;16.60;;
11531;SDS011;5822;51.000;5.874;2023-05-25T03:07:20;17.80;;;16.80;;
11531;SDS011;5822;51.000;5.874;2023-05-25T03:09:47;18.17;;;17.17;;
11531;SDS011;5822;51.000;5.874;2023-05-25T03:12:13;17.85;;;16.85;;
11531;SDS011;5822;51.000;5.874;2023-05-25T03:14:39;18.50;;;17.40;;
11531;SDS011;5822;51.000;5.874;2023-05-25T03:17:05;18.80;;;17.70;;
11531;SDS011;5822;51.000;5.874;2023-05-25T03:19:30;18.40;;;17.40;;
11531;SDS011;5822;51.000;5.874;2023-05-25T03:21:56;17.50;;;16.50;;
11531;SDS011;5822;51.000;5.874;2023-05-25T03:24:21;18.50;;;17.40;;
11531;SDS011;5822;51.000;5.874;2023-05-25T03:26:47;18.00;;;17.00;;
11531;SDS011;5822;51.000;5.874;2023-05-25T03:29:13;18.05;;;17.05;;
11531;SDS011;5822;51.000;5.874;2023-05-25T03:31:38;17.50;;;16.60;;
11531;SDS011;5822;51.000;5.874;2023-05-25T03:34:04;17.90;;;16.90;;
11531;SDS011;5822;51.000;5.874;2023-05-25T03:36:30;18.08;;;17.08;;
11531;SDS011;5822;51.000;5.874;2023-05-25T03:38:57;17.73;;;16.73;;
11531;SDS011;5822;51.000;5.874;2023-05-25T03:41:23;17.70;;;16.70;;
11531;SDS011;5822;51.000;5.874;2023-05-25T03:43:49;17.87;;;16.77;;
11531;SDS011;5822;51.000;5.874;2023-05-25T03:46:14;18.20;;;17.10;;
11531;SDS011;5822;51.000;5.874;2023-05-25T03:48:40;18.00;;;17.00;;
11531;SDS011;5822;51.000;5.874;2023-05-25T03:51:06;17.73;;;16.73;;
11531;SDS011;5822;51.000;5.874;2023-05-25T03:53:31;17.55;;;16.55;;
11531;SDS011;5822;51.000;5.874;2023-05-25T03:55:57;17.57;;;16.57;;
11531;SDS011;5822;51.000;5.874;2023-05-25T03:58:22;18.00;;;17.00;;
11531;SDS011;5822;51.000;5.874;2023-05-25T04:00:48;17.83;;;16.83;;
11531;SDS011;5822;51.000;5.874;2023-05-25T04:03:14;17.60;;;16.60;;
11531;SDS011;5822;51.000;5.874;2023-05-25T04:05:40;17.97;;;16.97;;
11531;SDS011;5822;51.000;5.874;2023-05-25T04:08:06;17.50;;;16.50;;
11531;SDS011;5822;51.000;5.874;2023-05-25T04:10:32;17.93;;;16.93;;
11531;SDS011;5822;51.000;5.874;2023-05-25T04:12:58;18.40;;;17.30;;
11531;SDS011;5822;51.000;5.874;2023-05-25T04:15:24;17.90;;;16.90;;
11531;SDS011;5822;51.000;5.874;2023-05-25T04:17:50;18.15;;;17.15;;
11531;SDS011;5822;51.000;5.874;2023-05-25T04:20:16;18.00;;;16.97;;
11531;SDS011;5822;51.000;5.874;2023-05-25T04:22:41;17.90;;;16.90;;
11531;SDS011;5822;51.000;5.874;2023-05-25T04:25:08;18.02;;;17.02;;
11531;SDS011;5822;51.000;5.874;2023-05-25T04:27:34;17.70;;;16.67;;
11531;SDS011;5822;51.000;5.874;2023-05-25T04:30:00;17.90;;;16.90;;
11531;SDS011;5822;51.000;5.874;2023-05-25T04:32:26;17.80;;;16.77;;
11531;SDS011;5822;51.000;5.874;2023-05-25T04:34:54;18.00;;;17.00;;
11531;SDS011;5822;51.000;5.874;2023-05-25T04:37:20;17.63;;;16.63;;
11531;SDS011;5822;51.000;5.874;2023-05-25T04:39:47;17.33;;;16.40;;
11531;SDS011;5822;51.000;5.874;2023-05-25T04:42:13;17.23;;;16.23;;
11531;SDS011;5822;51.000;5.874;2023-05-25T04:44:39;17.00;;;16.05;;
11531;SDS011;5822;51.000;5.874;2023-05-25T04:47:05;17.40;;;16.40;;
11531;SDS011;5822;51.000;5.874;2023-05-25T04:49:31;17.50;;;16.50;;
11531;SDS011;5822;51.000;5.874;2023-05-25T04:51:57;18.33;;;17.20;;
11531;SDS011;5822;51.000;5.874;2023-05-25T04:54:23;17.80;;;16.80;;
11531;SDS011;5822;51.000;5.874;2023-05-25T04:56:49;18.30;;;17.20;;
11531;SDS011;5822;51.000;5.874;2023-05-25T04:59:15;17.95;;;16.95;;
11531;SDS011;5822;51.000;5.874;2023-05-25T05:01:40;17.83;;;16.75;;
11531;SDS011;5822;51.000;5.874;2023-05-25T05:04:08;18.15;;;17.15;;
11531;SDS011;5822;51.000;5.874;2023-05-25T05:06:34;17.85;;;16.85;;
11531;SDS011;5822;51.000;5.874;2023-05-25T05:09:03;17.73;;;16.73;;
11531;SDS011;5822;51.000;5.874;2023-05-25T05:11:29;18.60;;;17.50;;
11531;SDS011;5822;51.000;5.874;2023-05-25T05:13:54;18.33;;;17.25;;
11531;SDS011;5822;51.000;5.874;2023-05-25T05:16:20;18.20;;;17.10;;
11531;SDS011;5822;51.000;5.874;2023-05-25T05:18:46;18.20;;;17.20;;
11531;SDS011;5822;51.000;5.874;2023-05-25T05:21:12;18.17;;;17.17;;
11531;SDS011;5822;51.000;5.874;2023-05-25T05:23:38;17.73;;;16.73;;
11531;SDS011;5822;51.000;5.874;2023-05-25T05:26:04;18.10;;;17.10;;
11531;SDS011;5822;51.000;5.874;2023-05-25T05:28:33;18.65;;;17.55;;
11531;SDS011;5822;51.000;5.874;2023-05-25T05:30:59;18.60;;;17.50;;
11531;SDS011;5822;51.000;5.874;2023-05-25T05:33:25;18.70;;;17.60;;
11531;SDS011;5822;51.000;5.874;2023-05-25T05:35:51;18.40;;;17.30;;
11531;SDS011;5822;51.000;5.874;2023-05-25T05:38:17;18.43;;;17.33;;
11531;SDS011;5822;51.000;5.874;2023-05-25T05:40:43;18.35;;;17.25;;
11531;SDS011;5822;51.000;5.874;2023-05-25T05:43:09;18.30;;;17.30;;
11531;SDS011;5822;51.000;5.874;2023-05-25T05:45:36;18.70;;;17.45;;
11531;SDS011;5822;51.000;5.874;2023-05-25T05:48:02;18.90;;;17.80;;
11531;SDS011;5822;51.000;5.874;2023-05-25T05:50:28;19.05;;;17.90;;
11531;SDS011;5822;51.000;5.874;2023-05-25T05:52:55;18.42;;;17.40;;
11531;SDS011;5822;51.000;5.874;2023-05-25T05:55:20;18.05;;;17.05;;
11531;SDS011;5822;51.000;5.874;2023-05-25T05:57:46;19.03;;;17.93;;
11531;SDS011;5822;51.000;5.874;2023-05-25T06:00:12;18.40;;;17.40;;
11531;SDS011;5822;51.000;5.874;2023-05-25T06:02:38;19.10;;;18.00;;
11531;SDS011;5822;51.000;5.874;2023-05-25T06:05:04;19.63;;;18.52;;
11531;SDS011;5822;51.000;5.874;2023-05-25T06:07:30;22.83;;;21.63;;
11531;SDS011;5822;51.000;5.874;2023-05-25T06:09:59;21.30;;;20.20;;
11531;SDS011;5822;51.000;5.874;2023-05-25T06:12:25;21.73;;;20.52;;
11531;SDS011;5822;51.000;5.874;2023-05-25T06:14:50;22.33;;;21.13;;
11531;SDS011;5822;51.000;5.874;2023-05-25T06:17:16;22.23;;;20.98;;
11531;SDS011;5822;51.000;5.874;2023-05-25T06:19:43;27.77;;;26.38;;
11531;SDS011;5822;51.000;5.874;2023-05-25T06:22:09;25.70;;;24.40;;
11531;SDS011;5822;51.000;5.874;2023-05-25T06:24:35;19.33;;;18.33;;
11531;SDS011;5822;51.000;5.874;2023-05-25T06:27:00;18.40;;;17.40;;
11531;SDS011;5822;51.000;5.874;2023-05-25T06:29:27;18.40;;;17.40;;
11531;SDS011;5822;51.000;5.874;2023-05-25T06:31:53;19.08;;;17.98;;
11531;SDS011;5822;51.000;5.874;2023-05-25T06:34:19;19.23;;;18.10;;
11531;SDS011;5822;51.000;5.874;2023-05-25T06:36:44;18.83;;;17.83;;
11531;SDS011;5822;51.000;5.874;2023-05-25T06:39:11;18.98;;;17.88;;
11531;SDS011;5822;51.000;5.874;2023-05-25T06:41:37;19.57;;;18.37;;
11531;SDS011;5822;51.000;5.874;2023-05-25T06:44:04;18.80;;;17.80;;
11531;SDS011;5822;51.000;5.874;2023-05-25T06:46:30;19.30;;;18.20;;
11531;SDS011;5822;51.000;5.874;2023-05-25T06:48:57;19.15;;;18.10;;
11531;SDS011;5822;51.000;5.874;2023-05-25T06:51:24;18.90;;;17.90;;
11531;SDS011;5822;51.000;5.874;2023-05-25T06:53:51;18.60;;;17.60;;
11531;SDS011;5822;51.000;5.874;2023-05-25T06:56:19;20.27;;;19.08;;
11531;SDS011;5822;51.000;5.874;2023-05-25T06:58:45;19.90;;;18.73;;
11531;SDS011;5822;51.000;5.874;2023-05-25T07:01:11;21.13;;;19.83;;
11531;SDS011;5822;51.000;5.874;2023-05-25T07:03:36;20.93;;;19.70;;
11531;SDS011;5822;51.000;5.874;2023-05-25T07:06:02;19.38;;;18.27;;
11531;SDS011;5822;51.000;5.874;2023-05-25T07:08:28;19.63;;;18.42;;
11531;SDS011;5822;51.000;5.874;2023-05-25T07:10:55;18.63;;;17.63;;
11531;SDS011;5822;51.000;5.874;2023-05-25T07:13:21;18.52;;;17.48;;
11531;SDS011;5822;51.000;5.874;2023-05-25T07:15:46;18.55;;;17.55;;
11531;SDS011;5822;51.000;5.874;2023-05-25T07:18:12;18.70;;;17.63;;
11531;SDS011;5822;51.000;5.874;2023-05-25T07:20:41;18.70;;;17.70;;
11531;SDS011;5822;51.000;5.874;2023-05-25T07:23:07;18.67;;;17.60;;
11531;SDS011;5822;51.000;5.874;2023-05-25T07:25:34;20.50;;;19.23;;
11531;SDS011;5822;51.000;5.874;2023-05-25T07:28:00;19.48;;;18.38;;
11531;SDS011;5822;51.000;5.874;2023-05-25T07:30:26;19.58;;;18.48;;
11531;SDS011;5822;51.000;5.874;2023-05-25T07:32:52;18.70;;;17.65;;
11531;SDS011;5822;51.000;5.874;2023-05-25T07:35:18;18.47;;;17.47;;
11531;SDS011;5822;51.000;5.874;2023-05-25T07:37:43;17.97;;;16.97;;
11531;SDS011;5822;51.000;5.874;2023-05-25T07:40:11;18.63;;;17.52;;
11531;SDS011;5822;51.000;5.874;2023-05-25T07:42:37;19.55;;;18.45;;
11531;SDS011;5822;51.000;5.874;2023-05-25T07:45:03;19.30;;;18.13;;
11531;SDS011;5822;51.000;5.874;2023-05-25T07:47:28;18.33;;;17.27;;
11531;SDS011;5822;51.000;5.874;2023-05-25T07:49:54;19.20;;;18.10;;
11531;SDS011;5822;51.000;5.874;2023-05-25T07:52:20;17.95;;;16.95;;
11531;SDS011;5822;51.000;5.874;2023-05-25T07:54:45;18.33;;;17.33;;
11531;SDS011;5822;51.000;5.874;2023-05-25T07:57:11;18.63;;;17.53;;
11531;SDS011;5822;51.000;5.874;2023-05-25T07:59:36;18.10;;;17.10;;
11531;SDS011;5822;51.000;5.874;2023-05-25T08:02:02;19.17;;;18.08;;
11531;SDS011;5822;51.000;5.874;2023-05-25T08:04:29;18.70;;;17.60;;
11531;SDS011;5822;51.000;5.874;2023-05-25T08:06:55;18.37;;;17.30;;
11531;SDS011;5822;51.000;5.874;2023-05-25T08:09:21;18.30;;;17.30;;
11531;SDS011;5822;51.000;5.874;2023-05-25T08:11:47;18.20;;;17.20;;
11531;SDS011;5822;51.000;5.874;2023-05-25T08:14:12;18.47;;;17.47;;
11531;SDS011;5822;51.000;5.874;2023-05-25T08:16:38;18.63;;;17.63;;
11531;SDS011;5822;51.000;5.874;2023-05-25T08:19:04;18.73;;;17.63;;
11531;SDS011;5822;51.000;5.874;2023-05-25T08:21:30;19.10;;;18.00;;
11531;SDS011;5822;51.000;5.874;2023-05-25T08:23:58;19.33;;;18.23;;
11531;SDS011;5822;51.000;5.874;2023-05-25T08:26:28;18.52;;;17.52;;
11531;SDS011;5822;51.000;5.874;2023-05-25T08:28:54;19.63;;;18.42;;
11531;SDS011;5822;51.000;5.874;2023-05-25T08:31:20;19.45;;;18.35;;
11531;SDS011;5822;51.000;5.874;2023-05-25T08:33:46;20.05;;;18.85;;
11531;SDS011;5822;51.000;5.874;2023-05-25T08:36:12;21.15;;;19.63;;
11531;SDS011;5822;51.000;5.874;2023-05-25T08:38:37;19.50;;;18.30;;
11531;SDS011;5822;51.000;5.874;2023-05-25T08:41:04;19.83;;;18.70;;
11531;SDS011;5822;51.000;5.874;2023-05-25T08:43:31;20.42;;;19.23;;
11531;SDS011;5822;51.000;5.874;2023-05-25T08:45:58;19.77;;;18.60;;
11531;SDS011;5822;51.000;5.874;2023-05-25T08:48:31;19.00;;;17.90;;
11531;SDS011;5822;51.000;5.874;2023-05-25T08:51:00;19.63;;;18.52;;
11531;SDS011;5822;51.000;5.874;2023-05-25T08:53:33;19.40;;;18.30;;
11531;SDS011;5822;51.000;5.874;2023-05-25T08:56:15;20.02;;;18.92;;
11531;SDS011;5822;51.000;5.874;2023-05-25T08:58:51;18.75;;;17.75;;
11531;SDS011;5822;51.000;5.874;2023-05-25T09:01:21;19.23;;;18.13;;
11531;SDS011;5822;51.000;5.874;2023-05-25T09:03:52;19.20;;;18.10;;
11531;SDS011;5822;51.000;5.874;2023-05-25T09:06:21;19.05;;;18.00;;
11531;SDS011;5822;51.000;5.874;2023-05-25T09:08:48;18.80;;;17.70;;
11531;SDS011;5822;51.000;5.874;2023-05-25T09:11:14;20.00;;;18.80;;
11531;SDS011;5822;51.000;5.874;2023-05-25T09:13:41;19.23;;;18.13;;
11531;SDS011;5822;51.000;5.874;2023-05-25T09:16:07;19.90;;;18.70;;
11531;SDS011;5822;51.000;5.874;2023-05-25T09:18:32;19.20;;;18.10;;
11531;SDS011;5822;51.000;5.874;2023-05-25T09:20:58;18.77;;;17.77;;
11531;SDS011;5822;51.000;5.874;2023-05-25T09:23:25;19.02;;;17.98;;
11531;SDS011;5822;51.000;5.874;2023-05-25T09:25:53;18.97;;;17.87;;
11531;SDS011;5822;51.000;5.874;2023-05-25T09:28:19;17.55;;;16.55;;
11531;SDS011;5822;51.000;5.874;2023-05-25T09:30:45;18.58;;;17.58;;
11531;SDS011;5822;51.000;5.874;2023-05-25T09:33:11;19.10;;;18.00;;
11531;SDS011;5822;51.000;5.874;2023-05-25T09:35:40;19.20;;;18.10;;
11531;SDS011;5822;51.000;5.874;2023-05-25T09:38:07;19.33;;;18.23;;
11531;SDS011;5822;51.000;5.874;2023-05-25T09:40:32;18.60;;;17.60;;
11531;SDS011;5822;51.000;5.874;2023-05-25T09:43:00;18.10;;;17.10;;
11531;SDS011;5822;51.000;5.874;2023-05-25T09:45:27;18.90;;;17.80;;
11531;SDS011;5822;51.000;5.874;2023-05-25T09:47:56;19.13;;;18.02;;
11531;SDS011;5822;51.000;5.874;2023-05-25T09:50:23;19.20;;;18.10;;
11531;SDS011;5822;51.000;5.874;2023-05-25T09:55:21;18.83;;;17.73;;
11531;SDS011;5822;51.000;5.874;2023-05-25T09:57:51;18.90;;;17.80;;
11531;SDS011;5822;51.000;5.874;2023-05-25T10:00:18;18.55;;;17.55;;
11531;SDS011;5822;51.000;5.874;2023-05-25T10:02:43;20.88;;;19.67;;
11531;SDS011;5822;51.000;5.874;2023-05-25T10:05:09;20.75;;;19.65;;
11531;SDS011;5822;51.000;5.874;2023-05-25T10:07:35;21.25;;;20.05;;
11531;SDS011;5822;51.000;5.874;2023-05-25T10:10:03;19.85;;;18.75;;
11531;SDS011;5822;51.000;5.874;2023-05-25T10:12:31;20.52;;;19.42;;
11531;SDS011;5822;51.000;5.874;2023-05-25T10:14:58;20.83;;;19.67;;
11531;SDS011;5822;51.000;5.874;2023-05-25T10:17:27;20.63;;;19.52;;
11531;SDS011;5822;51.000;5.874;2023-05-25T10:19:56;20.65;;;19.48;;
11531;SDS011;5822;51.000;5.874;2023-05-25T10:22:31;20.00;;;18.90;;
11531;SDS011;5822;51.000;5.874;2023-05-25T10:27:52;19.67;;;18.58;;
11531;SDS011;5822;51.000;5.874;2023-05-25T10:30:19;18.92;;;17.92;;
11531;SDS011;5822;51.000;5.874;2023-05-25T10:32:45;17.93;;;16.93;;
11531;SDS011;5822;51.000;5.874;2023-05-25T10:35:12;17.98;;;16.98;;
11531;SDS011;5822;51.000;5.874;2023-05-25T10:37:38;17.70;;;16.70;;
11531;SDS011;5822;51.000;5.874;2023-05-25T10:40:04;17.77;;;16.77;;
11531;SDS011;5822;51.000;5.874;2023-05-25T10:42:32;17.85;;;16.85;;
11531;SDS011;5822;51.000;5.874;2023-05-25T10:45:01;17.90;;;16.90;;
11531;SDS011;5822;51.000;5.874;2023-05-25T10:47:31;17.80;;;16.80;;
11531;SDS011;5822;51.000;5.874;2023-05-25T10:49:58;18.60;;;17.50;;
11531;SDS011;5822;51.000;5.874;2023-05-25T10:52:27;18.87;;;17.87;;
11531;SDS011;5822;51.000;5.874;2023-05-25T10:54:55;19.50;;;18.40;;
11531;SDS011;5822;51.000;5.874;2023-05-25T10:57:22;19.80;;;18.80;;
11531;SDS011;5822;51.000;5.874;2023-05-25T10:59:49;19.10;;;18.10;;
11531;SDS011;5822;51.000;5.874;2023-05-25T11:07:54;18.83;;;17.77;;
11531;SDS011;5822;51.000;5.874;2023-05-25T11:13:45;18.67;;;17.67;;
11531;SDS011;5822;51.000;5.874;2023-05-25T11:18:49;19.70;;;18.60;;
11531;SDS011;5822;51.000;5.874;2023-05-25T11:23:51;19.90;;;18.90;;
11531;SDS011;5822;51.000;5.874;2023-05-25T11:26:30;19.17;;;18.17;;
11531;SDS011;5822;51.000;5.874;2023-05-25T11:28:57;19.60;;;18.48;;
11531;SDS011;5822;51.000;5.874;2023-05-25T11:31:27;17.55;;;16.65;;
11531;SDS011;5822;51.000;5.874;2023-05-25T11:33:59;18.52;;;17.52;;
11531;SDS011;5822;51.000;5.874;2023-05-25T11:36:29;18.40;;;17.40;;
11531;SDS011;5822;51.000;5.874;2023-05-25T11:38:57;18.90;;;17.90;;
11531;SDS011;5822;51.000;5.874;2023-05-25T11:41:25;19.40;;;18.40;;
11531;SDS011;5822;51.000;5.874;2023-05-25T11:44:01;19.37;;;18.30;;
11531;SDS011;5822;51.000;5.874;2023-05-25T11:46:31;19.30;;;18.30;;
11531;SDS011;5822;51.000;5.874;2023-05-25T11:48:57;19.70;;;18.70;;
11531;SDS011;5822;51.000;5.874;2023-05-25T11:51:24;20.10;;;19.00;;
11531;SDS011;5822;51.000;5.874;2023-05-25T11:53:52;19.83;;;18.83;;
11531;SDS011;5822;51.000;5.874;2023-05-25T11:56:18;20.70;;;19.65;;
11531;SDS011;5822;51.000;5.874;2023-05-25T11:58:45;19.30;;;18.30;;
11531;SDS011;5822;51.000;5.874;2023-05-25T12:03:38;19.90;;;18.80;;
11531;SDS011;5822;51.000;5.874;2023-05-25T12:06:04;19.97;;;18.97;;
11531;SDS011;5822;51.000;5.874;2023-05-25T12:08:33;19.80;;;18.80;;
11531;SDS011;5822;51.000;5.874;2023-05-25T12:11:00;19.58;;;18.50;;
11531;SDS011;5822;51.000;5.874;2023-05-25T12:13:26;19.33;;;18.33;;
11531;SDS011;5822;51.000;5.874;2023-05-25T12:15:53;19.23;;;18.23;;
11531;SDS011;5822;51.000;5.874;2023-05-25T12:18:21;18.50;;;17.60;;
11531;SDS011;5822;51.000;5.874;2023-05-25T12:20:48;17.10;;;16.20;;
11531;SDS011;5822;51.000;5.874;2023-05-25T12:23:15;17.67;;;16.67;;
11531;SDS011;5822;51.000;5.874;2023-05-25T12:25:41;17.40;;;16.50;;
11531;SDS011;5822;51.000;5.874;2023-05-25T12:28:13;18.20;;;17.20;;
11531;SDS011;5822;51.000;5.874;2023-05-25T12:30:39;18.52;;;17.42;;
11531;SDS011;5822;51.000;5.874;2023-05-25T12:33:05;17.98;;;16.98;;
11531;SDS011;5822;51.000;5.874;2023-05-25T12:35:44;18.10;;;17.10;;
11531;SDS011;5822;51.000;5.874;2023-05-25T12:38:12;18.20;;;17.30;;
11531;SDS011;5822;51.000;5.874;2023-05-25T12:40:42;19.42;;;18.42;;
11531;SDS011;5822;51.000;5.874;2023-05-25T12:43:07;18.90;;;17.80;;
11531;SDS011;5822;51.000;5.874;2023-05-25T12:45:39;18.70;;;17.70;;
11531;SDS011;5822;51.000;5.874;2023-05-25T12:48:06;19.70;;;18.50;;
11531;SDS011;5822;51.000;5.874;2023-05-25T12:50:32;18.88;;;17.88;;
11531;SDS011;5822;51.000;5.874;2023-05-25T12:53:01;18.30;;;17.30;;
11531;SDS011;5822;51.000;5.874;2023-05-25T12:55:29;18.08;;;17.08;;
11531;SDS011;5822;51.000;5.874;2023-05-25T12:57:57;18.20;;;17.20;;
11531;SDS011;5822;51.000;5.874;2023-05-25T13:00:25;18.50;;;17.40;;
11531;SDS011;5822;51.000;5.874;2023-05-25T13:03:01;18.57;;;17.50;;
11531;SDS011;5822;51.000;5.874;2023-05-25T13:05:29;18.40;;;17.40;;
11531;SDS011;5822;51.000;5.874;2023-05-25T13:08:00;18.83;;;17.83;;
11531;SDS011;5822;51.000;5.874;2023-05-25T13:10:28;19.08;;;18.08;;
11531;SDS011;5822;51.000;5.874;2023-05-25T13:12:55;18.85;;;17.75;;
11531;SDS011;5822;51.000;5.874;2023-05-25T13:15:22;19.40;;;18.20;;
11531;SDS011;5822;51.000;5.874;2023-05-25T13:17:48;19.27;;;18.08;;
11531;SDS011;5822;51.000;5.874;2023-05-25T13:20:15;18.63;;;17.53;;
11531;SDS011;5822;51.000;5.874;2023-05-25T13:22:43;18.27;;;17.27;;
11531;SDS011;5822;51.000;5.874;2023-05-25T13:25:13;18.92;;;17.83;;
11531;SDS011;5822;51.000;5.874;2023-05-25T13:27:42;18.60;;;17.50;;
11531;SDS011;5822;51.000;5.874;2023-05-25T13:30:09;18.90;;;17.80;;
11531;SDS011;5822;51.000;5.874;2023-05-25T13:32:36;18.30;;;17.30;;
11531;SDS011;5822;51.000;5.874;2023-05-25T13:35:02;18.42;;;17.42;;
11531;SDS011;5822;51.000;5.874;2023-05-25T13:37:29;17.98;;;17.00;;
11531;SDS011;5822;51.000;5.874;2023-05-25T13:39:55;18.30;;;17.30;;
11531;SDS011;5822;51.000;5.874;2023-05-25T13:42:22;18.70;;;17.60;;
11531;SDS011;5822;51.000;5.874;2023-05-25T13:44:48;18.40;;;17.40;;
11531;SDS011;5822;51.000;5.874;2023-05-25T13:47:14;18.80;;;17.70;;
11531;SDS011;5822;51.000;5.874;2023-05-25T13:49:39;18.25;;;17.25;;
11531;SDS011;5822;51.000;5.874;2023-05-25T13:52:05;17.45;;;16.55;;
11531;SDS011;5822;51.000;5.874;2023-05-25T13:54:32;18.30;;;17.30;;
11531;SDS011;5822;51.000;5.874;2023-05-25T13:56:57;17.90;;;16.90;;
11531;SDS011;5822;51.000;5.874;2023-05-25T13:59:23;18.07;;;17.07;;
11531;SDS011;5822;51.000;5.874;2023-05-25T14:01:49;18.43;;;17.43;;
11531;SDS011;5822;51.000;5.874;2023-05-25T14:04:15;18.20;;;17.20;;
11531;SDS011;5822;51.000;5.874;2023-05-25T14:06:41;18.08;;;17.08;;
11531;SDS011;5822;51.000;5.874;2023-05-25T14:09:07;19.05;;;17.95;;
11531;SDS011;5822;51.000;5.874;2023-05-25T14:11:36;20.00;;;18.90;;
11531;SDS011;5822;51.000;5.874;2023-05-25T14:14:02;20.17;;;19.08;;
11531;SDS011;5822;51.000;5.874;2023-05-25T14:16:32;19.25;;;18.25;;
11531;SDS011;5822;51.000;5.874;2023-05-25T14:18:59;19.00;;;18.00;;
11531;SDS011;5822;51.000;5.874;2023-05-25T14:21:24;19.67;;;18.60;;
11531;SDS011;5822;51.000;5.874;2023-05-25T14:23:51;18.42;;;17.42;;
11531;SDS011;5822;51.000;5.874;2023-05-25T14:26:17;18.38;;;17.38;;
11531;SDS011;5822;51.000;5.874;2023-05-25T14:28:42;18.10;;;17.10;;
11531;SDS011;5822;51.000;5.874;2023-05-25T14:31:08;18.53;;;17.43;;
11531;SDS011;5822;51.000;5.874;2023-05-25T14:33:33;19.15;;;17.95;;
11531;SDS011;5822;51.000;5.874;2023-05-25T14:35:59;20.40;;;19.30;;
11531;SDS011;5822;51.000;5.874;2023-05-25T14:38:25;20.70;;;19.50;;
11531;SDS011;5822;51.000;5.874;2023-05-25T14:40:51;19.93;;;18.83;;
11531;SDS011;5822;51.000;5.874;2023-05-25T14:43:17;20.10;;;19.00;;
11531;SDS011;5822;51.000;5.874;2023-05-25T14:45:42;18.27;;;17.27;;
11531;SDS011;5822;51.000;5.874;2023-05-25T14:48:08;18.10;;;17.10;;
11531;SDS011;5822;51.000;5.874;2023-05-25T14:50:34;18.10;;;17.10;;
11531;SDS011;5822;51.000;5.874;2023-05-25T14:53:00;18.38;;;17.38;;
11531;SDS011;5822;51.000;5.874;2023-05-25T14:55:25;18.50;;;17.50;;
11531;SDS011;5822;51.000;5.874;2023-05-25T14:57:51;18.95;;;17.95;;
11531;SDS011;5822;51.000;5.874;2023-05-25T15:00:16;19.13;;;18.13;;
11531;SDS011;5822;51.000;5.874;2023-05-25T15:02:42;19.27;;;18.27;;